sensor_id;sensor_type;location;lat;lon;timestamp;P1;durP1;ratioP1;P2;durP2;ratioP2
50301;SDS011;36550;50.472;19.744;2022-10-16T00:00:54;16.42;;;9.28;;
50301;SDS011;36550;50.472;19.744;2022-10-16T00:03:39;14.60;;;7.55;;
50301;SDS011;36550;50.472;19.744;2022-10-16T00:06:24;11.43;;;7.58;;
50301;SDS011;36550;50.472;19.744;2022-10-16T00:09:10;9.70;;;6.97;;
50301;SDS011;36550;50.472;19.744;2022-10-16T00:11:54;13.85;;;8.28;;
50301;SDS011;36550;50.472;19.744;2022-10-16T00:14:39;14.10;;;8.40;;
50301;SDS011;36550;50.472;19.744;2022-10-16T00:17:24;16.75;;;9.30;;
50301;SDS011;36550;50.472;19.744;2022-10-16T00:20:09;16.52;;;9.65;;
50301;SDS011;36550;50.472;19.744;2022-10-16T00:22:53;14.98;;;9.70;;
50301;SDS011;36550;50.472;19.744;2022-10-16T00:25:38;12.53;;;8.65;;
50301;SDS011;36550;50.472;19.744;2022-10-16T00:28:22;11.55;;;8.55;;
50301;SDS011;36550;50.472;19.744;2022-10-16T00:31:10;11.70;;;7.72;;
50301;SDS011;36550;50.472;19.744;2022-10-16T00:33:55;11.55;;;7.30;;
50301;SDS011;36550;50.472;19.744;2022-10-16T00:36:39;15.72;;;8.88;;
50301;SDS011;36550;50.472;19.744;2022-10-16T00:39:24;14.90;;;8.85;;
50301;SDS011;36550;50.472;19.744;2022-10-16T00:42:10;15.65;;;9.33;;
50301;SDS011;36550;50.472;19.744;2022-10-16T00:44:59;16.52;;;10.28;;
50301;SDS011;36550;50.472;19.744;2022-10-16T00:47:44;16.50;;;9.43;;
50301;SDS011;36550;50.472;19.744;2022-10-16T00:50:31;17.35;;;9.45;;
50301;SDS011;36550;50.472;19.744;2022-10-16T00:53:18;12.65;;;9.28;;
50301;SDS011;36550;50.472;19.744;2022-10-16T00:56:03;13.10;;;9.03;;
50301;SDS011;36550;50.472;19.744;2022-10-16T00:58:47;13.00;;;8.28;;
50301;SDS011;36550;50.472;19.744;2022-10-16T01:01:32;11.60;;;7.33;;
50301;SDS011;36550;50.472;19.744;2022-10-16T01:04:16;14.98;;;9.35;;
50301;SDS011;36550;50.472;19.744;2022-10-16T01:13:17;14.45;;;10.08;;
50301;SDS011;36550;50.472;19.744;2022-10-16T01:16:25;14.63;;;9.38;;
50301;SDS011;36550;50.472;19.744;2022-10-16T01:19:41;16.67;;;10.65;;
50301;SDS011;36550;50.472;19.744;2022-10-16T01:22:26;15.18;;;10.18;;
50301;SDS011;36550;50.472;19.744;2022-10-16T01:25:22;19.02;;;9.83;;
50301;SDS011;36550;50.472;19.744;2022-10-16T01:28:32;12.70;;;8.33;;
50301;SDS011;36550;50.472;19.744;2022-10-16T01:31:24;11.40;;;7.60;;
50301;SDS011;36550;50.472;19.744;2022-10-16T01:34:15;14.60;;;9.28;;
50301;SDS011;36550;50.472;19.744;2022-10-16T01:37:07;16.27;;;10.05;;
50301;SDS011;36550;50.472;19.744;2022-10-16T01:39:55;19.67;;;10.55;;
50301;SDS011;36550;50.472;19.744;2022-10-16T01:42:48;18.57;;;10.88;;
50301;SDS011;36550;50.472;19.744;2022-10-16T01:45:48;16.97;;;10.05;;
50301;SDS011;36550;50.472;19.744;2022-10-16T01:48:32;18.75;;;10.60;;
50301;SDS011;36550;50.472;19.744;2022-10-16T01:51:19;15.70;;;9.93;;
50301;SDS011;36550;50.472;19.744;2022-10-16T01:54:06;12.95;;;8.85;;
50301;SDS011;36550;50.472;19.744;2022-10-16T01:56:51;12.05;;;9.35;;
50301;SDS011;36550;50.472;19.744;2022-10-16T01:59:40;16.32;;;10.20;;
50301;SDS011;36550;50.472;19.744;2022-10-16T02:02:26;15.93;;;10.65;;
50301;SDS011;36550;50.472;19.744;2022-10-16T02:08:32;13.60;;;10.03;;
50301;SDS011;36550;50.472;19.744;2022-10-16T02:11:18;13.75;;;8.93;;
50301;SDS011;36550;50.472;19.744;2022-10-16T02:14:03;15.55;;;9.53;;
50301;SDS011;36550;50.472;19.744;2022-10-16T02:16:49;13.68;;;8.73;;
50301;SDS011;36550;50.472;19.744;2022-10-16T02:19:34;16.32;;;9.68;;
50301;SDS011;36550;50.472;19.744;2022-10-16T02:22:22;15.18;;;10.43;;
50301;SDS011;36550;50.472;19.744;2022-10-16T02:25:27;15.83;;;10.70;;
50301;SDS011;36550;50.472;19.744;2022-10-16T02:28:17;14.75;;;10.78;;
50301;SDS011;36550;50.472;19.744;2022-10-16T02:31:10;15.48;;;10.63;;
50301;SDS011;36550;50.472;19.744;2022-10-16T02:33:58;14.68;;;10.15;;
50301;SDS011;36550;50.472;19.744;2022-10-16T02:36:43;15.25;;;8.78;;
50301;SDS011;36550;50.472;19.744;2022-10-16T02:39:30;13.72;;;8.33;;
50301;SDS011;36550;50.472;19.744;2022-10-16T02:42:15;15.83;;;10.13;;
50301;SDS011;36550;50.472;19.744;2022-10-16T02:45:02;13.72;;;9.88;;
50301;SDS011;36550;50.472;19.744;2022-10-16T02:47:48;13.95;;;10.55;;
50301;SDS011;36550;50.472;19.744;2022-10-16T02:50:32;20.50;;;10.15;;
50301;SDS011;36550;50.472;19.744;2022-10-16T02:53:16;15.23;;;10.18;;
50301;SDS011;36550;50.472;19.744;2022-10-16T02:56:01;14.58;;;9.88;;
50301;SDS011;36550;50.472;19.744;2022-10-16T02:58:45;15.48;;;9.43;;
50301;SDS011;36550;50.472;19.744;2022-10-16T03:01:29;15.93;;;10.48;;
50301;SDS011;36550;50.472;19.744;2022-10-16T03:04:14;15.98;;;10.70;;
50301;SDS011;36550;50.472;19.744;2022-10-16T03:06:58;14.25;;;10.25;;
50301;SDS011;36550;50.472;19.744;2022-10-16T03:09:42;17.10;;;11.30;;
50301;SDS011;36550;50.472;19.744;2022-10-16T03:12:27;17.37;;;9.90;;
50301;SDS011;36550;50.472;19.744;2022-10-16T03:15:12;14.20;;;9.28;;
50301;SDS011;36550;50.472;19.744;2022-10-16T03:17:59;14.03;;;8.80;;
50301;SDS011;36550;50.472;19.744;2022-10-16T03:20:44;13.60;;;9.75;;
50301;SDS011;36550;50.472;19.744;2022-10-16T03:23:28;17.82;;;11.03;;
50301;SDS011;36550;50.472;19.744;2022-10-16T03:26:12;19.05;;;11.22;;
50301;SDS011;36550;50.472;19.744;2022-10-16T03:28:57;13.62;;;10.78;;
50301;SDS011;36550;50.472;19.744;2022-10-16T03:31:41;17.35;;;10.55;;
50301;SDS011;36550;50.472;19.744;2022-10-16T03:34:25;15.55;;;9.33;;
50301;SDS011;36550;50.472;19.744;2022-10-16T03:37:10;19.00;;;10.55;;
50301;SDS011;36550;50.472;19.744;2022-10-16T03:39:54;20.88;;;11.40;;
50301;SDS011;36550;50.472;19.744;2022-10-16T03:42:39;19.50;;;11.70;;
50301;SDS011;36550;50.472;19.744;2022-10-16T03:45:23;14.95;;;10.30;;
50301;SDS011;36550;50.472;19.744;2022-10-16T03:48:08;15.68;;;10.85;;
50301;SDS011;36550;50.472;19.744;2022-10-16T03:50:54;19.90;;;11.28;;
50301;SDS011;36550;50.472;19.744;2022-10-16T03:53:38;16.32;;;11.73;;
50301;SDS011;36550;50.472;19.744;2022-10-16T03:56:23;19.37;;;11.73;;
50301;SDS011;36550;50.472;19.744;2022-10-16T03:59:08;19.10;;;11.33;;
50301;SDS011;36550;50.472;19.744;2022-10-16T04:01:52;14.75;;;8.70;;
50301;SDS011;36550;50.472;19.744;2022-10-16T04:04:36;17.25;;;9.08;;
50301;SDS011;36550;50.472;19.744;2022-10-16T04:07:21;16.97;;;10.63;;
50301;SDS011;36550;50.472;19.744;2022-10-16T04:10:05;16.60;;;10.78;;
50301;SDS011;36550;50.472;19.744;2022-10-16T04:12:50;18.40;;;12.37;;
50301;SDS011;36550;50.472;19.744;2022-10-16T04:15:34;20.02;;;12.63;;
50301;SDS011;36550;50.472;19.744;2022-10-16T04:18:19;19.15;;;11.30;;
50301;SDS011;36550;50.472;19.744;2022-10-16T04:21:07;17.98;;;11.43;;
50301;SDS011;36550;50.472;19.744;2022-10-16T04:23:50;14.55;;;10.03;;
50301;SDS011;36550;50.472;19.744;2022-10-16T04:26:34;16.37;;;9.03;;
50301;SDS011;36550;50.472;19.744;2022-10-16T04:29:18;17.27;;;11.50;;
50301;SDS011;36550;50.472;19.744;2022-10-16T04:32:03;17.98;;;10.95;;
50301;SDS011;36550;50.472;19.744;2022-10-16T04:34:47;16.67;;;11.43;;
50301;SDS011;36550;50.472;19.744;2022-10-16T04:37:31;17.92;;;11.95;;
50301;SDS011;36550;50.472;19.744;2022-10-16T04:40:16;16.30;;;11.80;;
50301;SDS011;36550;50.472;19.744;2022-10-16T04:43:00;18.67;;;12.07;;
50301;SDS011;36550;50.472;19.744;2022-10-16T04:45:44;18.45;;;10.13;;
50301;SDS011;36550;50.472;19.744;2022-10-16T04:48:28;16.10;;;9.38;;
50301;SDS011;36550;50.472;19.744;2022-10-16T04:51:13;18.65;;;10.23;;
50301;SDS011;36550;50.472;19.744;2022-10-16T04:53:57;15.88;;;10.60;;
50301;SDS011;36550;50.472;19.744;2022-10-16T04:56:41;16.97;;;10.75;;
50301;SDS011;36550;50.472;19.744;2022-10-16T04:59:33;20.75;;;11.85;;
50301;SDS011;36550;50.472;19.744;2022-10-16T05:02:17;17.15;;;10.20;;
50301;SDS011;36550;50.472;19.744;2022-10-16T05:05:02;14.58;;;8.93;;
50301;SDS011;36550;50.472;19.744;2022-10-16T05:07:47;12.65;;;8.95;;
50301;SDS011;36550;50.472;19.744;2022-10-16T05:10:33;16.23;;;10.32;;
50301;SDS011;36550;50.472;19.744;2022-10-16T05:13:17;16.93;;;11.05;;
50301;SDS011;36550;50.472;19.744;2022-10-16T05:16:01;17.65;;;11.80;;
50301;SDS011;36550;50.472;19.744;2022-10-16T05:18:46;16.15;;;11.20;;
50301;SDS011;36550;50.472;19.744;2022-10-16T05:21:30;16.97;;;11.25;;
50301;SDS011;36550;50.472;19.744;2022-10-16T05:24:14;13.80;;;9.70;;
50301;SDS011;36550;50.472;19.744;2022-10-16T05:26:59;15.88;;;9.30;;
50301;SDS011;36550;50.472;19.744;2022-10-16T05:29:45;15.08;;;8.38;;
50301;SDS011;36550;50.472;19.744;2022-10-16T05:32:30;16.65;;;9.50;;
50301;SDS011;36550;50.472;19.744;2022-10-16T05:35:14;15.93;;;10.35;;
50301;SDS011;36550;50.472;19.744;2022-10-16T05:38:01;16.65;;;10.90;;
50301;SDS011;36550;50.472;19.744;2022-10-16T05:40:50;15.78;;;11.33;;
50301;SDS011;36550;50.472;19.744;2022-10-16T05:43:35;13.78;;;10.28;;
50301;SDS011;36550;50.472;19.744;2022-10-16T05:46:20;15.53;;;9.43;;
50301;SDS011;36550;50.472;19.744;2022-10-16T05:49:04;13.62;;;8.68;;
50301;SDS011;36550;50.472;19.744;2022-10-16T05:51:48;15.50;;;10.08;;
50301;SDS011;36550;50.472;19.744;2022-10-16T05:54:32;16.55;;;10.10;;
50301;SDS011;36550;50.472;19.744;2022-10-16T05:57:17;14.58;;;9.48;;
50301;SDS011;36550;50.472;19.744;2022-10-16T06:00:03;15.10;;;9.13;;
50301;SDS011;36550;50.472;19.744;2022-10-16T06:02:48;14.68;;;8.93;;
50301;SDS011;36550;50.472;19.744;2022-10-16T06:05:32;13.20;;;7.40;;
50301;SDS011;36550;50.472;19.744;2022-10-16T06:08:17;14.78;;;8.13;;
50301;SDS011;36550;50.472;19.744;2022-10-16T06:11:04;78.30;;;52.43;;
50301;SDS011;36550;50.472;19.744;2022-10-16T06:13:53;67.08;;;42.27;;
50301;SDS011;36550;50.472;19.744;2022-10-16T06:16:41;87.60;;;55.65;;
50301;SDS011;36550;50.472;19.744;2022-10-16T06:19:25;51.45;;;31.75;;
50301;SDS011;36550;50.472;19.744;2022-10-16T06:22:10;31.60;;;18.42;;
50301;SDS011;36550;50.472;19.744;2022-10-16T06:24:55;23.47;;;14.40;;
50301;SDS011;36550;50.472;19.744;2022-10-16T06:27:39;20.43;;;10.23;;
50301;SDS011;36550;50.472;19.744;2022-10-16T06:30:24;15.45;;;8.13;;
50301;SDS011;36550;50.472;19.744;2022-10-16T06:33:09;13.45;;;8.28;;
50301;SDS011;36550;50.472;19.744;2022-10-16T06:36:03;15.40;;;10.23;;
50301;SDS011;36550;50.472;19.744;2022-10-16T06:38:54;19.85;;;10.08;;
50301;SDS011;36550;50.472;19.744;2022-10-16T06:41:38;19.07;;;11.05;;
50301;SDS011;36550;50.472;19.744;2022-10-16T06:44:22;17.57;;;10.25;;
50301;SDS011;36550;50.472;19.744;2022-10-16T06:47:07;15.98;;;8.73;;
50301;SDS011;36550;50.472;19.744;2022-10-16T06:49:51;13.15;;;7.45;;
50301;SDS011;36550;50.472;19.744;2022-10-16T06:52:35;11.55;;;6.53;;
50301;SDS011;36550;50.472;19.744;2022-10-16T06:55:19;12.90;;;8.18;;
50301;SDS011;36550;50.472;19.744;2022-10-16T06:58:04;14.25;;;9.05;;
50301;SDS011;36550;50.472;19.744;2022-10-16T07:00:48;15.35;;;9.03;;
50301;SDS011;36550;50.472;19.744;2022-10-16T07:03:37;14.47;;;9.35;;
50301;SDS011;36550;50.472;19.744;2022-10-16T07:06:24;21.55;;;7.90;;
50301;SDS011;36550;50.472;19.744;2022-10-16T07:09:10;13.30;;;7.70;;
50301;SDS011;36550;50.472;19.744;2022-10-16T07:11:55;13.48;;;8.43;;
50301;SDS011;36550;50.472;19.744;2022-10-16T07:14:39;14.13;;;9.13;;
50301;SDS011;36550;50.472;19.744;2022-10-16T07:17:23;13.90;;;9.15;;
50301;SDS011;36550;50.472;19.744;2022-10-16T07:20:08;13.05;;;9.15;;
50301;SDS011;36550;50.472;19.744;2022-10-16T07:22:53;12.07;;;9.08;;
50301;SDS011;36550;50.472;19.744;2022-10-16T07:25:37;14.03;;;8.15;;
50301;SDS011;36550;50.472;19.744;2022-10-16T07:28:22;13.05;;;7.80;;
50301;SDS011;36550;50.472;19.744;2022-10-16T07:31:07;12.28;;;8.58;;
50301;SDS011;36550;50.472;19.744;2022-10-16T07:33:55;14.07;;;9.30;;
50301;SDS011;36550;50.472;19.744;2022-10-16T07:36:43;15.80;;;9.25;;
50301;SDS011;36550;50.472;19.744;2022-10-16T07:39:27;11.97;;;8.58;;
50301;SDS011;36550;50.472;19.744;2022-10-16T07:42:11;10.08;;;8.08;;
50301;SDS011;36550;50.472;19.744;2022-10-16T07:44:56;10.28;;;6.92;;
50301;SDS011;36550;50.472;19.744;2022-10-16T07:47:40;13.32;;;8.20;;
50301;SDS011;36550;50.472;19.744;2022-10-16T07:50:24;12.90;;;8.28;;
50301;SDS011;36550;50.472;19.744;2022-10-16T07:53:09;12.93;;;9.03;;
50301;SDS011;36550;50.472;19.744;2022-10-16T07:55:57;11.28;;;7.95;;
50301;SDS011;36550;50.472;19.744;2022-10-16T07:58:43;11.48;;;7.95;;
50301;SDS011;36550;50.472;19.744;2022-10-16T08:01:28;11.38;;;7.42;;
50301;SDS011;36550;50.472;19.744;2022-10-16T08:04:12;11.10;;;7.58;;
50301;SDS011;36550;50.472;19.744;2022-10-16T08:06:56;12.58;;;7.58;;
50301;SDS011;36550;50.472;19.744;2022-10-16T08:09:40;13.18;;;8.45;;
50301;SDS011;36550;50.472;19.744;2022-10-16T08:12:25;11.83;;;7.83;;
50301;SDS011;36550;50.472;19.744;2022-10-16T08:15:10;15.83;;;7.53;;
50301;SDS011;36550;50.472;19.744;2022-10-16T08:17:56;8.73;;;6.40;;
50301;SDS011;36550;50.472;19.744;2022-10-16T08:20:45;9.48;;;6.92;;
50301;SDS011;36550;50.472;19.744;2022-10-16T08:23:29;12.05;;;7.55;;
50301;SDS011;36550;50.472;19.744;2022-10-16T08:26:14;12.17;;;7.37;;
50301;SDS011;36550;50.472;19.744;2022-10-16T08:28:58;12.58;;;7.55;;
50301;SDS011;36550;50.472;19.744;2022-10-16T08:31:43;9.45;;;7.15;;
50301;SDS011;36550;50.472;19.744;2022-10-16T08:34:27;10.23;;;7.35;;
50301;SDS011;36550;50.472;19.744;2022-10-16T08:37:11;9.65;;;6.55;;
50301;SDS011;36550;50.472;19.744;2022-10-16T08:39:57;10.20;;;7.15;;
50301;SDS011;36550;50.472;19.744;2022-10-16T08:48:47;10.90;;;6.90;;
50301;SDS011;36550;50.472;19.744;2022-10-16T08:51:35;12.78;;;6.90;;
50301;SDS011;36550;50.472;19.744;2022-10-16T08:54:22;11.40;;;6.33;;
50301;SDS011;36550;50.472;19.744;2022-10-16T08:57:22;10.58;;;6.62;;
50301;SDS011;36550;50.472;19.744;2022-10-16T09:00:12;11.30;;;6.12;;
50301;SDS011;36550;50.472;19.744;2022-10-16T09:06:10;11.20;;;6.33;;
50301;SDS011;36550;50.472;19.744;2022-10-16T09:15:43;12.95;;;6.62;;
50301;SDS011;36550;50.472;19.744;2022-10-16T09:22:17;10.08;;;6.35;;
50301;SDS011;36550;50.472;19.744;2022-10-16T09:25:10;9.48;;;6.65;;
50301;SDS011;36550;50.472;19.744;2022-10-16T09:28:00;10.75;;;6.85;;
50301;SDS011;36550;50.472;19.744;2022-10-16T09:30:44;9.65;;;6.58;;
50301;SDS011;36550;50.472;19.744;2022-10-16T09:33:35;8.13;;;6.20;;
50301;SDS011;36550;50.472;19.744;2022-10-16T09:36:22;10.13;;;6.58;;
50301;SDS011;36550;50.472;19.744;2022-10-16T09:39:11;13.43;;;6.05;;
50301;SDS011;36550;50.472;19.744;2022-10-16T09:41:55;9.65;;;6.35;;
50301;SDS011;36550;50.472;19.744;2022-10-16T09:44:40;10.40;;;6.53;;
50301;SDS011;36550;50.472;19.744;2022-10-16T09:47:29;10.40;;;6.47;;
50301;SDS011;36550;50.472;19.744;2022-10-16T09:50:20;8.95;;;5.87;;
50301;SDS011;36550;50.472;19.744;2022-10-16T09:53:13;9.15;;;6.53;;
50301;SDS011;36550;50.472;19.744;2022-10-16T09:56:00;9.75;;;5.85;;
50301;SDS011;36550;50.472;19.744;2022-10-16T09:58:49;9.88;;;5.80;;
50301;SDS011;36550;50.472;19.744;2022-10-16T10:01:45;13.13;;;5.65;;
50301;SDS011;36550;50.472;19.744;2022-10-16T10:04:41;9.38;;;5.50;;
50301;SDS011;36550;50.472;19.744;2022-10-16T10:07:37;7.10;;;6.10;;
50301;SDS011;36550;50.472;19.744;2022-10-16T10:10:25;8.33;;;5.83;;
50301;SDS011;36550;50.472;19.744;2022-10-16T10:13:17;10.48;;;6.45;;
50301;SDS011;36550;50.472;19.744;2022-10-16T10:16:03;9.15;;;7.00;;
50301;SDS011;36550;50.472;19.744;2022-10-16T10:18:57;12.50;;;8.35;;
50301;SDS011;36550;50.472;19.744;2022-10-16T10:21:42;12.13;;;6.72;;
50301;SDS011;36550;50.472;19.744;2022-10-16T10:24:27;10.43;;;6.70;;
50301;SDS011;36550;50.472;19.744;2022-10-16T10:27:14;7.90;;;4.92;;
50301;SDS011;36550;50.472;19.744;2022-10-16T10:30:10;10.03;;;6.35;;
50301;SDS011;36550;50.472;19.744;2022-10-16T10:36:19;8.65;;;5.83;;
50301;SDS011;36550;50.472;19.744;2022-10-16T10:39:27;10.82;;;6.17;;
50301;SDS011;36550;50.472;19.744;2022-10-16T10:42:29;10.85;;;6.25;;
50301;SDS011;36550;50.472;19.744;2022-10-16T10:51:37;10.63;;;5.67;;
50301;SDS011;36550;50.472;19.744;2022-10-16T10:54:45;9.08;;;5.03;;
50301;SDS011;36550;50.472;19.744;2022-10-16T11:07:00;9.53;;;5.30;;
50301;SDS011;36550;50.472;19.744;2022-10-16T11:10:18;8.48;;;6.12;;
50301;SDS011;36550;50.472;19.744;2022-10-16T11:16:15;10.38;;;6.50;;
50301;SDS011;36550;50.472;19.744;2022-10-16T11:19:14;8.13;;;5.50;;
50301;SDS011;36550;50.472;19.744;2022-10-16T11:22:19;13.05;;;6.42;;
50301;SDS011;36550;50.472;19.744;2022-10-16T11:28:13;6.85;;;5.70;;
50301;SDS011;36550;50.472;19.744;2022-10-16T11:31:34;10.48;;;5.80;;
50301;SDS011;36550;50.472;19.744;2022-10-16T11:34:24;8.93;;;5.95;;
50301;SDS011;36550;50.472;19.744;2022-10-16T11:37:23;10.78;;;5.33;;
50301;SDS011;36550;50.472;19.744;2022-10-16T11:40:29;8.33;;;5.50;;
50301;SDS011;36550;50.472;19.744;2022-10-16T11:43:24;10.13;;;5.90;;
50301;SDS011;36550;50.472;19.744;2022-10-16T11:46:22;11.60;;;5.53;;
50301;SDS011;36550;50.472;19.744;2022-10-16T11:49:13;8.23;;;5.67;;
50301;SDS011;36550;50.472;19.744;2022-10-16T11:52:07;8.10;;;5.72;;
50301;SDS011;36550;50.472;19.744;2022-10-16T11:55:17;8.88;;;6.00;;
50301;SDS011;36550;50.472;19.744;2022-10-16T11:58:17;8.35;;;5.78;;
50301;SDS011;36550;50.472;19.744;2022-10-16T12:07:32;8.95;;;6.15;;
50301;SDS011;36550;50.472;19.744;2022-10-16T12:10:22;10.80;;;6.33;;
50301;SDS011;36550;50.472;19.744;2022-10-16T12:13:27;9.28;;;6.15;;
50301;SDS011;36550;50.472;19.744;2022-10-16T12:19:13;9.75;;;5.50;;
50301;SDS011;36550;50.472;19.744;2022-10-16T12:22:01;8.70;;;5.37;;
50301;SDS011;36550;50.472;19.744;2022-10-16T12:24:50;5.97;;;4.60;;
50301;SDS011;36550;50.472;19.744;2022-10-16T12:27:34;8.33;;;4.87;;
50301;SDS011;36550;50.472;19.744;2022-10-16T12:30:20;10.13;;;4.42;;
50301;SDS011;36550;50.472;19.744;2022-10-16T12:33:21;5.78;;;4.20;;
50301;SDS011;36550;50.472;19.744;2022-10-16T12:36:16;7.70;;;4.17;;
50301;SDS011;36550;50.472;19.744;2022-10-16T12:39:04;8.28;;;4.22;;
50301;SDS011;36550;50.472;19.744;2022-10-16T12:41:59;6.90;;;4.42;;
50301;SDS011;36550;50.472;19.744;2022-10-16T12:44:46;6.08;;;4.25;;
50301;SDS011;36550;50.472;19.744;2022-10-16T12:50:24;6.30;;;4.97;;
50301;SDS011;36550;50.472;19.744;2022-10-16T13:02:57;7.72;;;4.47;;
50301;SDS011;36550;50.472;19.744;2022-10-16T13:05:48;6.87;;;4.20;;
50301;SDS011;36550;50.472;19.744;2022-10-16T13:12:04;7.37;;;4.85;;
50301;SDS011;36550;50.472;19.744;2022-10-16T13:21:17;6.33;;;4.10;;
50301;SDS011;36550;50.472;19.744;2022-10-16T13:30:30;6.80;;;4.72;;
50301;SDS011;36550;50.472;19.744;2022-10-16T13:33:17;5.20;;;4.58;;
50301;SDS011;36550;50.472;19.744;2022-10-16T13:36:22;6.33;;;4.37;;
50301;SDS011;36550;50.472;19.744;2022-10-16T13:39:14;8.25;;;5.10;;
50301;SDS011;36550;50.472;19.744;2022-10-16T13:42:12;6.40;;;4.45;;
50301;SDS011;36550;50.472;19.744;2022-10-16T13:45:24;7.45;;;4.85;;
50301;SDS011;36550;50.472;19.744;2022-10-16T13:48:09;7.25;;;5.12;;
50301;SDS011;36550;50.472;19.744;2022-10-16T13:51:01;11.90;;;5.25;;
50301;SDS011;36550;50.472;19.744;2022-10-16T13:53:51;9.08;;;5.60;;
50301;SDS011;36550;50.472;19.744;2022-10-16T13:56:38;7.20;;;5.00;;
50301;SDS011;36550;50.472;19.744;2022-10-16T13:59:25;7.40;;;5.08;;
50301;SDS011;36550;50.472;19.744;2022-10-16T14:02:25;7.65;;;4.72;;
50301;SDS011;36550;50.472;19.744;2022-10-16T14:05:19;7.85;;;4.80;;
50301;SDS011;36550;50.472;19.744;2022-10-16T14:08:03;7.40;;;5.12;;
50301;SDS011;36550;50.472;19.744;2022-10-16T14:10:50;8.38;;;5.05;;
50301;SDS011;36550;50.472;19.744;2022-10-16T14:13:38;7.90;;;5.40;;
50301;SDS011;36550;50.472;19.744;2022-10-16T14:16:29;8.15;;;5.05;;
50301;SDS011;36550;50.472;19.744;2022-10-16T14:19:21;10.63;;;5.28;;
50301;SDS011;36550;50.472;19.744;2022-10-16T14:22:19;12.10;;;5.37;;
50301;SDS011;36550;50.472;19.744;2022-10-16T14:31:16;8.35;;;5.42;;
50301;SDS011;36550;50.472;19.744;2022-10-16T14:34:05;9.03;;;5.67;;
50301;SDS011;36550;50.472;19.744;2022-10-16T14:37:09;11.15;;;5.60;;
50301;SDS011;36550;50.472;19.744;2022-10-16T14:40:01;9.43;;;5.40;;
50301;SDS011;36550;50.472;19.744;2022-10-16T14:42:47;8.45;;;5.67;;
50301;SDS011;36550;50.472;19.744;2022-10-16T14:45:32;12.88;;;6.33;;
50301;SDS011;36550;50.472;19.744;2022-10-16T14:48:19;7.37;;;5.33;;
50301;SDS011;36550;50.472;19.744;2022-10-16T14:51:05;10.48;;;5.90;;
50301;SDS011;36550;50.472;19.744;2022-10-16T14:53:52;8.45;;;5.80;;
50301;SDS011;36550;50.472;19.744;2022-10-16T14:59:38;7.65;;;5.62;;
50301;SDS011;36550;50.472;19.744;2022-10-16T15:02:31;9.38;;;6.20;;
50301;SDS011;36550;50.472;19.744;2022-10-16T15:05:19;10.80;;;6.12;;
50301;SDS011;36550;50.472;19.744;2022-10-16T15:08:09;9.23;;;5.62;;
50301;SDS011;36550;50.472;19.744;2022-10-16T15:10:54;14.80;;;5.92;;
50301;SDS011;36550;50.472;19.744;2022-10-16T15:13:38;10.60;;;6.35;;
50301;SDS011;36550;50.472;19.744;2022-10-16T15:16:22;9.28;;;6.35;;
50301;SDS011;36550;50.472;19.744;2022-10-16T15:19:06;12.53;;;5.92;;
50301;SDS011;36550;50.472;19.744;2022-10-16T15:21:51;13.48;;;5.90;;
50301;SDS011;36550;50.472;19.744;2022-10-16T15:24:36;12.03;;;6.67;;
50301;SDS011;36550;50.472;19.744;2022-10-16T15:27:20;10.30;;;6.17;;
50301;SDS011;36550;50.472;19.744;2022-10-16T15:30:05;9.75;;;6.20;;
50301;SDS011;36550;50.472;19.744;2022-10-16T15:32:50;8.63;;;6.55;;
50301;SDS011;36550;50.472;19.744;2022-10-16T15:35:35;8.60;;;6.42;;
50301;SDS011;36550;50.472;19.744;2022-10-16T15:38:19;10.75;;;6.42;;
50301;SDS011;36550;50.472;19.744;2022-10-16T15:41:05;12.45;;;5.83;;
50301;SDS011;36550;50.472;19.744;2022-10-16T15:43:52;8.98;;;6.05;;
50301;SDS011;36550;50.472;19.744;2022-10-16T15:46:36;9.50;;;6.15;;
50301;SDS011;36550;50.472;19.744;2022-10-16T15:49:21;11.43;;;6.53;;
50301;SDS011;36550;50.472;19.744;2022-10-16T15:52:05;13.70;;;6.53;;
50301;SDS011;36550;50.472;19.744;2022-10-16T15:54:49;11.88;;;6.75;;
50301;SDS011;36550;50.472;19.744;2022-10-16T15:57:34;9.65;;;6.42;;
50301;SDS011;36550;50.472;19.744;2022-10-16T16:00:21;11.30;;;7.15;;
50301;SDS011;36550;50.472;19.744;2022-10-16T16:03:07;11.55;;;7.00;;
50301;SDS011;36550;50.472;19.744;2022-10-16T16:05:51;14.93;;;7.45;;
50301;SDS011;36550;50.472;19.744;2022-10-16T16:08:36;16.05;;;8.00;;
50301;SDS011;36550;50.472;19.744;2022-10-16T16:11:20;15.43;;;8.27;;
50301;SDS011;36550;50.472;19.744;2022-10-16T16:14:07;13.05;;;7.72;;
50301;SDS011;36550;50.472;19.744;2022-10-16T16:16:57;9.95;;;6.97;;
50301;SDS011;36550;50.472;19.744;2022-10-16T16:19:42;10.43;;;6.90;;
50301;SDS011;36550;50.472;19.744;2022-10-16T16:22:27;11.40;;;6.90;;
50301;SDS011;36550;50.472;19.744;2022-10-16T16:25:11;12.47;;;7.50;;
50301;SDS011;36550;50.472;19.744;2022-10-16T16:27:55;15.15;;;7.30;;
50301;SDS011;36550;50.472;19.744;2022-10-16T16:30:40;12.10;;;7.60;;
50301;SDS011;36550;50.472;19.744;2022-10-16T16:33:24;12.78;;;7.72;;
50301;SDS011;36550;50.472;19.744;2022-10-16T16:36:09;14.18;;;7.97;;
50301;SDS011;36550;50.472;19.744;2022-10-16T16:38:53;10.85;;;7.92;;
50301;SDS011;36550;50.472;19.744;2022-10-16T16:41:37;13.43;;;7.83;;
50301;SDS011;36550;50.472;19.744;2022-10-16T16:44:22;11.90;;;7.15;;
50301;SDS011;36550;50.472;19.744;2022-10-16T16:47:06;12.37;;;7.50;;
50301;SDS011;36550;50.472;19.744;2022-10-16T16:49:50;12.43;;;7.35;;
50301;SDS011;36550;50.472;19.744;2022-10-16T16:52:35;12.33;;;8.00;;
50301;SDS011;36550;50.472;19.744;2022-10-16T16:55:19;12.82;;;8.70;;
50301;SDS011;36550;50.472;19.744;2022-10-16T16:58:03;10.72;;;7.53;;
50301;SDS011;36550;50.472;19.744;2022-10-16T17:00:48;13.50;;;8.43;;
50301;SDS011;36550;50.472;19.744;2022-10-16T17:03:32;11.40;;;7.42;;
50301;SDS011;36550;50.472;19.744;2022-10-16T17:06:23;11.70;;;7.03;;
50301;SDS011;36550;50.472;19.744;2022-10-16T17:09:10;16.07;;;8.08;;
50301;SDS011;36550;50.472;19.744;2022-10-16T17:12:06;13.28;;;8.18;;
50301;SDS011;36550;50.472;19.744;2022-10-16T17:14:47;14.58;;;8.60;;
50301;SDS011;36550;50.472;19.744;2022-10-16T17:17:34;14.63;;;8.53;;
50301;SDS011;36550;50.472;19.744;2022-10-16T17:20:18;13.30;;;7.70;;
50301;SDS011;36550;50.472;19.744;2022-10-16T17:23:04;12.18;;;7.30;;
50301;SDS011;36550;50.472;19.744;2022-10-16T17:25:52;14.68;;;7.35;;
50301;SDS011;36550;50.472;19.744;2022-10-16T17:28:37;13.80;;;7.85;;
50301;SDS011;36550;50.472;19.744;2022-10-16T17:31:24;13.72;;;7.60;;
50301;SDS011;36550;50.472;19.744;2022-10-16T17:34:11;13.90;;;8.35;;
50301;SDS011;36550;50.472;19.744;2022-10-16T17:36:57;14.70;;;8.65;;
50301;SDS011;36550;50.472;19.744;2022-10-16T17:39:41;14.95;;;9.13;;
50301;SDS011;36550;50.472;19.744;2022-10-16T17:42:26;14.75;;;8.03;;
50301;SDS011;36550;50.472;19.744;2022-10-16T17:47:57;11.33;;;7.28;;
50301;SDS011;36550;50.472;19.744;2022-10-16T17:50:42;11.90;;;8.20;;
50301;SDS011;36550;50.472;19.744;2022-10-16T17:53:26;15.10;;;8.23;;
50301;SDS011;36550;50.472;19.744;2022-10-16T17:56:11;15.35;;;9.25;;
50301;SDS011;36550;50.472;19.744;2022-10-16T17:58:57;15.72;;;8.53;;
50301;SDS011;36550;50.472;19.744;2022-10-16T18:01:44;16.32;;;9.03;;
50301;SDS011;36550;50.472;19.744;2022-10-16T18:04:28;16.25;;;9.13;;